Friendship, Indiana
Current Conditions -  °F | °C
As of 6:13 PM on Monday 22 Dec 2014 (Local Time) from KIMS Reporting Station
Overcast Overcast  
Wind Chill: 45°   Ceiling: 3900
Heat Index: 48°   Visibility: 10mi
Dew Point: 39°   Wind: 7mph
Humidity: 71%   Direction: 100°E
Pressure: 29.78"   Gusts: NA
Location:  38.97°N, 85.15°W
Report Text: KIMS 222313Z AUTO 10006KT 10SM OVC039 09/04 A2978 RMK AO1
Loading
Personal Weather Stations






























Interactive Weather Map New forecast layout! Learn more

10-Day Weather Forecast

Advertisements
Track Severe Weather on mobile